sensor_id;sensor_type;location;lat;lon;timestamp;P1;durP1;ratioP1;P2;durP2;ratioP2
8704;SDS011;4389;41.932;25.904;2024-03-22T00:02:03;15.60;;;12.23;;
8704;SDS011;4389;41.932;25.904;2024-03-22T00:04:29;16.17;;;12.03;;
8704;SDS011;4389;41.932;25.904;2024-03-22T00:06:56;15.63;;;11.37;;
8704;SDS011;4389;41.932;25.904;2024-03-22T00:09:21;12.53;;;10.73;;
8704;SDS011;4389;41.932;25.904;2024-03-22T00:11:49;12.33;;;10.00;;
8704;SDS011;4389;41.932;25.904;2024-03-22T00:14:14;11.57;;;8.57;;
8704;SDS011;4389;41.932;25.904;2024-03-22T00:16:42;10.43;;;8.20;;
8704;SDS011;4389;41.932;25.904;2024-03-22T00:19:09;7.87;;;5.57;;
8704;SDS011;4389;41.932;25.904;2024-03-22T00:21:35;28.00;;;6.07;;
8704;SDS011;4389;41.932;25.904;2024-03-22T00:24:01;5.07;;;4.47;;
8704;SDS011;4389;41.932;25.904;2024-03-22T00:26:28;5.80;;;5.00;;
8704;SDS011;4389;41.932;25.904;2024-03-22T00:28:54;7.33;;;6.20;;
8704;SDS011;4389;41.932;25.904;2024-03-22T00:31:23;5.07;;;4.50;;
8704;SDS011;4389;41.932;25.904;2024-03-22T00:33:48;5.67;;;5.07;;
8704;SDS011;4389;41.932;25.904;2024-03-22T00:36:16;5.93;;;5.30;;
8704;SDS011;4389;41.932;25.904;2024-03-22T00:38:42;9.60;;;5.73;;
8704;SDS011;4389;41.932;25.904;2024-03-22T00:41:09;6.50;;;5.47;;
8704;SDS011;4389;41.932;25.904;2024-03-22T00:43:35;11.03;;;7.20;;
8704;SDS011;4389;41.932;25.904;2024-03-22T00:46:02;7.53;;;6.13;;
8704;SDS011;4389;41.932;25.904;2024-03-22T00:48:28;6.60;;;5.33;;
8704;SDS011;4389;41.932;25.904;2024-03-22T00:50:55;5.70;;;5.20;;
8704;SDS011;4389;41.932;25.904;2024-03-22T00:53:22;5.83;;;5.00;;
8704;SDS011;4389;41.932;25.904;2024-03-22T00:55:49;6.87;;;6.03;;
8704;SDS011;4389;41.932;25.904;2024-03-22T00:58:16;10.27;;;6.43;;
8704;SDS011;4389;41.932;25.904;2024-03-22T01:00:44;6.73;;;6.03;;
8704;SDS011;4389;41.932;25.904;2024-03-22T01:03:10;7.10;;;6.27;;
8704;SDS011;4389;41.932;25.904;2024-03-22T01:05:37;7.37;;;6.50;;
8704;SDS011;4389;41.932;25.904;2024-03-22T01:08:05;7.47;;;6.67;;
8704;SDS011;4389;41.932;25.904;2024-03-22T01:10:34;8.40;;;7.40;;
8704;SDS011;4389;41.932;25.904;2024-03-22T01:13:00;7.40;;;6.70;;
8704;SDS011;4389;41.932;25.904;2024-03-22T01:15:26;7.47;;;6.20;;
8704;SDS011;4389;41.932;25.904;2024-03-22T01:17:52;9.17;;;7.07;;
8704;SDS011;4389;41.932;25.904;2024-03-22T01:20:19;8.13;;;7.03;;
8704;SDS011;4389;41.932;25.904;2024-03-22T01:22:45;7.60;;;6.80;;
8704;SDS011;4389;41.932;25.904;2024-03-22T01:25:12;7.67;;;6.33;;
8704;SDS011;4389;41.932;25.904;2024-03-22T01:27:39;6.23;;;5.43;;
8704;SDS011;4389;41.932;25.904;2024-03-22T01:30:06;14.63;;;5.80;;
8704;SDS011;4389;41.932;25.904;2024-03-22T01:32:34;7.97;;;5.33;;
8704;SDS011;4389;41.932;25.904;2024-03-22T01:35:01;5.37;;;4.87;;
8704;SDS011;4389;41.932;25.904;2024-03-22T01:37:26;9.13;;;5.00;;
8704;SDS011;4389;41.932;25.904;2024-03-22T01:39:53;6.07;;;5.47;;
8704;SDS011;4389;41.932;25.904;2024-03-22T01:42:19;5.80;;;5.10;;
8704;SDS011;4389;41.932;25.904;2024-03-22T01:44:48;6.37;;;4.77;;
8704;SDS011;4389;41.932;25.904;2024-03-22T01:47:14;5.83;;;5.23;;
8704;SDS011;4389;41.932;25.904;2024-03-22T01:49:41;5.70;;;5.20;;
8704;SDS011;4389;41.932;25.904;2024-03-22T01:52:07;6.93;;;5.50;;
8704;SDS011;4389;41.932;25.904;2024-03-22T01:54:35;9.67;;;5.40;;
8704;SDS011;4389;41.932;25.904;2024-03-22T01:57:00;7.60;;;6.53;;
8704;SDS011;4389;41.932;25.904;2024-03-22T01:59:27;7.40;;;6.10;;
8704;SDS011;4389;41.932;25.904;2024-03-22T02:01:55;10.80;;;6.00;;
8704;SDS011;4389;41.932;25.904;2024-03-22T02:04:22;9.63;;;7.07;;
8704;SDS011;4389;41.932;25.904;2024-03-22T02:06:48;10.07;;;6.83;;
8704;SDS011;4389;41.932;25.904;2024-03-22T02:09:15;11.90;;;5.97;;
8704;SDS011;4389;41.932;25.904;2024-03-22T02:11:41;7.50;;;5.87;;
8704;SDS011;4389;41.932;25.904;2024-03-22T02:14:08;7.10;;;5.67;;
8704;SDS011;4389;41.932;25.904;2024-03-22T02:16:35;6.50;;;5.40;;
8704;SDS011;4389;41.932;25.904;2024-03-22T02:19:03;9.33;;;5.23;;
8704;SDS011;4389;41.932;25.904;2024-03-22T02:21:28;8.97;;;5.83;;
8704;SDS011;4389;41.932;25.904;2024-03-22T02:23:57;8.57;;;5.77;;
8704;SDS011;4389;41.932;25.904;2024-03-22T02:26:22;7.27;;;5.90;;
8704;SDS011;4389;41.932;25.904;2024-03-22T02:28:49;9.30;;;7.00;;
8704;SDS011;4389;41.932;25.904;2024-03-22T02:31:15;6.70;;;6.00;;
8704;SDS011;4389;41.932;25.904;2024-03-22T02:33:42;9.13;;;6.37;;
8704;SDS011;4389;41.932;25.904;2024-03-22T02:36:08;6.93;;;5.93;;
8704;SDS011;4389;41.932;25.904;2024-03-22T02:38:35;8.53;;;6.10;;
8704;SDS011;4389;41.932;25.904;2024-03-22T02:41:02;8.07;;;6.80;;
8704;SDS011;4389;41.932;25.904;2024-03-22T02:43:29;13.87;;;6.87;;
8704;SDS011;4389;41.932;25.904;2024-03-22T02:45:55;8.27;;;6.57;;
8704;SDS011;4389;41.932;25.904;2024-03-22T02:48:22;7.97;;;7.13;;
8704;SDS011;4389;41.932;25.904;2024-03-22T02:50:47;9.37;;;7.27;;
8704;SDS011;4389;41.932;25.904;2024-03-22T02:53:14;9.80;;;6.67;;
8704;SDS011;4389;41.932;25.904;2024-03-22T02:55:40;7.97;;;6.23;;
8704;SDS011;4389;41.932;25.904;2024-03-22T02:58:08;7.73;;;6.03;;
8704;SDS011;4389;41.932;25.904;2024-03-22T03:00:35;16.10;;;7.37;;
8704;SDS011;4389;41.932;25.904;2024-03-22T03:03:03;15.23;;;10.70;;
8704;SDS011;4389;41.932;25.904;2024-03-22T03:05:29;11.03;;;8.80;;
8704;SDS011;4389;41.932;25.904;2024-03-22T03:07:56;12.10;;;8.30;;
8704;SDS011;4389;41.932;25.904;2024-03-22T03:10:22;9.47;;;8.17;;
8704;SDS011;4389;41.932;25.904;2024-03-22T03:12:49;10.63;;;8.10;;
8704;SDS011;4389;41.932;25.904;2024-03-22T03:15:17;16.27;;;8.60;;
8704;SDS011;4389;41.932;25.904;2024-03-22T03:17:43;12.57;;;9.00;;
8704;SDS011;4389;41.932;25.904;2024-03-22T03:20:10;11.33;;;8.73;;
8704;SDS011;4389;41.932;25.904;2024-03-22T03:22:38;15.53;;;8.67;;
8704;SDS011;4389;41.932;25.904;2024-03-22T03:25:04;14.70;;;9.43;;
8704;SDS011;4389;41.932;25.904;2024-03-22T03:27:32;18.63;;;9.33;;
8704;SDS011;4389;41.932;25.904;2024-03-22T03:29:57;11.47;;;8.63;;
8704;SDS011;4389;41.932;25.904;2024-03-22T03:32:26;31.97;;;9.53;;
8704;SDS011;4389;41.932;25.904;2024-03-22T03:34:52;13.63;;;8.97;;
8704;SDS011;4389;41.932;25.904;2024-03-22T03:37:18;14.80;;;9.03;;
8704;SDS011;4389;41.932;25.904;2024-03-22T03:39:44;12.67;;;8.57;;
8704;SDS011;4389;41.932;25.904;2024-03-22T03:42:11;12.07;;;8.93;;
8704;SDS011;4389;41.932;25.904;2024-03-22T03:44:37;11.93;;;9.47;;
8704;SDS011;4389;41.932;25.904;2024-03-22T03:47:04;18.93;;;9.60;;
8704;SDS011;4389;41.932;25.904;2024-03-22T03:49:31;12.40;;;9.63;;
8704;SDS011;4389;41.932;25.904;2024-03-22T03:51:58;11.03;;;8.97;;
8704;SDS011;4389;41.932;25.904;2024-03-22T03:54:24;11.40;;;8.93;;
8704;SDS011;4389;41.932;25.904;2024-03-22T03:56:50;10.10;;;8.73;;
8704;SDS011;4389;41.932;25.904;2024-03-22T03:59:16;9.67;;;8.27;;
8704;SDS011;4389;41.932;25.904;2024-03-22T04:01:43;11.00;;;7.90;;
8704;SDS011;4389;41.932;25.904;2024-03-22T04:04:09;11.40;;;8.80;;
8704;SDS011;4389;41.932;25.904;2024-03-22T04:06:37;14.40;;;9.20;;
8704;SDS011;4389;41.932;25.904;2024-03-22T04:09:03;10.97;;;9.00;;
8704;SDS011;4389;41.932;25.904;2024-03-22T04:11:30;12.63;;;8.67;;
8704;SDS011;4389;41.932;25.904;2024-03-22T04:13:56;10.27;;;8.10;;
8704;SDS011;4389;41.932;25.904;2024-03-22T04:16:23;12.53;;;9.47;;
8704;SDS011;4389;41.932;25.904;2024-03-22T04:18:49;9.63;;;8.63;;
8704;SDS011;4389;41.932;25.904;2024-03-22T04:21:15;11.53;;;8.83;;
8704;SDS011;4389;41.932;25.904;2024-03-22T04:23:43;13.17;;;8.13;;
8704;SDS011;4389;41.932;25.904;2024-03-22T04:26:09;15.73;;;8.47;;
8704;SDS011;4389;41.932;25.904;2024-03-22T04:28:35;12.57;;;8.63;;
8704;SDS011;4389;41.932;25.904;2024-03-22T04:31:02;21.63;;;9.40;;
8704;SDS011;4389;41.932;25.904;2024-03-22T04:33:30;12.93;;;9.00;;
8704;SDS011;4389;41.932;25.904;2024-03-22T04:35:58;15.43;;;9.87;;
8704;SDS011;4389;41.932;25.904;2024-03-22T04:38:24;38.47;;;9.70;;
8704;SDS011;4389;41.932;25.904;2024-03-22T04:40:53;19.77;;;9.90;;
8704;SDS011;4389;41.932;25.904;2024-03-22T04:43:21;34.80;;;9.30;;
8704;SDS011;4389;41.932;25.904;2024-03-22T04:45:48;18.57;;;9.53;;
8704;SDS011;4389;41.932;25.904;2024-03-22T04:48:14;76.40;;;14.97;;
8704;SDS011;4389;41.932;25.904;2024-03-22T04:50:42;27.93;;;8.93;;
8704;SDS011;4389;41.932;25.904;2024-03-22T04:53:09;22.13;;;10.30;;
8704;SDS011;4389;41.932;25.904;2024-03-22T04:55:35;12.40;;;9.00;;
8704;SDS011;4389;41.932;25.904;2024-03-22T04:58:04;15.90;;;7.60;;
8704;SDS011;4389;41.932;25.904;2024-03-22T05:00:31;12.67;;;6.87;;
8704;SDS011;4389;41.932;25.904;2024-03-22T05:02:57;16.77;;;7.27;;
8704;SDS011;4389;41.932;25.904;2024-03-22T05:05:23;20.37;;;7.50;;
8704;SDS011;4389;41.932;25.904;2024-03-22T05:07:49;20.57;;;8.23;;
8704;SDS011;4389;41.932;25.904;2024-03-22T05:10:16;17.27;;;8.23;;
8704;SDS011;4389;41.932;25.904;2024-03-22T05:12:42;16.00;;;8.50;;
8704;SDS011;4389;41.932;25.904;2024-03-22T05:15:10;11.63;;;6.80;;
8704;SDS011;4389;41.932;25.904;2024-03-22T05:17:36;6.80;;;5.53;;
8704;SDS011;4389;41.932;25.904;2024-03-22T05:20:04;7.97;;;5.53;;
8704;SDS011;4389;41.932;25.904;2024-03-22T05:22:34;7.50;;;6.17;;
8704;SDS011;4389;41.932;25.904;2024-03-22T05:25:00;16.57;;;7.03;;
8704;SDS011;4389;41.932;25.904;2024-03-22T05:27:27;22.30;;;7.40;;
8704;SDS011;4389;41.932;25.904;2024-03-22T05:29:53;7.13;;;5.13;;
8704;SDS011;4389;41.932;25.904;2024-03-22T05:32:20;10.27;;;5.90;;
8704;SDS011;4389;41.932;25.904;2024-03-22T05:34:47;7.00;;;5.13;;
8704;SDS011;4389;41.932;25.904;2024-03-22T05:37:13;10.40;;;5.97;;
8704;SDS011;4389;41.932;25.904;2024-03-22T05:39:40;6.83;;;5.53;;
8704;SDS011;4389;41.932;25.904;2024-03-22T05:42:06;13.80;;;6.43;;
8704;SDS011;4389;41.932;25.904;2024-03-22T05:44:33;11.27;;;5.27;;
8704;SDS011;4389;41.932;25.904;2024-03-22T05:46:59;9.27;;;6.43;;
8704;SDS011;4389;41.932;25.904;2024-03-22T05:49:27;12.67;;;6.80;;
8704;SDS011;4389;41.932;25.904;2024-03-22T05:51:53;6.40;;;5.73;;
8704;SDS011;4389;41.932;25.904;2024-03-22T05:54:19;5.73;;;5.03;;
8704;SDS011;4389;41.932;25.904;2024-03-22T05:56:45;8.00;;;5.50;;
8704;SDS011;4389;41.932;25.904;2024-03-22T05:59:12;8.13;;;5.03;;
8704;SDS011;4389;41.932;25.904;2024-03-22T06:01:38;11.77;;;5.80;;
8704;SDS011;4389;41.932;25.904;2024-03-22T06:04:05;12.60;;;5.50;;
8704;SDS011;4389;41.932;25.904;2024-03-22T06:06:33;6.97;;;4.27;;
8704;SDS011;4389;41.932;25.904;2024-03-22T06:09:00;6.63;;;5.73;;
8704;SDS011;4389;41.932;25.904;2024-03-22T06:11:28;5.73;;;4.97;;
8704;SDS011;4389;41.932;25.904;2024-03-22T06:13:56;6.43;;;3.73;;
8704;SDS011;4389;41.932;25.904;2024-03-22T06:16:21;2.97;;;2.67;;
8704;SDS011;4389;41.932;25.904;2024-03-22T06:18:48;3.67;;;2.80;;
8704;SDS011;4389;41.932;25.904;2024-03-22T06:21:14;7.03;;;3.80;;
8704;SDS011;4389;41.932;25.904;2024-03-22T06:23:48;3.70;;;2.90;;
8704;SDS011;4389;41.932;25.904;2024-03-22T06:26:14;7.07;;;2.90;;
8704;SDS011;4389;41.932;25.904;2024-03-22T06:28:41;3.60;;;2.73;;
8704;SDS011;4389;41.932;25.904;2024-03-22T06:31:07;4.17;;;2.70;;
8704;SDS011;4389;41.932;25.904;2024-03-22T06:33:34;3.10;;;2.60;;
8704;SDS011;4389;41.932;25.904;2024-03-22T06:36:00;4.87;;;2.70;;
8704;SDS011;4389;41.932;25.904;2024-03-22T06:38:26;3.80;;;3.40;;
8704;SDS011;4389;41.932;25.904;2024-03-22T06:40:54;3.37;;;3.07;;
8704;SDS011;4389;41.932;25.904;2024-03-22T06:43:20;3.20;;;2.83;;
8704;SDS011;4389;41.932;25.904;2024-03-22T06:45:46;5.97;;;4.67;;
8704;SDS011;4389;41.932;25.904;2024-03-22T06:48:13;4.03;;;3.20;;
8704;SDS011;4389;41.932;25.904;2024-03-22T06:50:40;6.27;;;3.50;;
8704;SDS011;4389;41.932;25.904;2024-03-22T06:53:07;2.90;;;2.60;;
8704;SDS011;4389;41.932;25.904;2024-03-22T06:55:35;3.07;;;2.57;;
8704;SDS011;4389;41.932;25.904;2024-03-22T06:58:03;17.00;;;3.77;;
8704;SDS011;4389;41.932;25.904;2024-03-22T07:00:29;5.50;;;2.80;;
8704;SDS011;4389;41.932;25.904;2024-03-22T07:02:56;2.97;;;2.50;;
8704;SDS011;4389;41.932;25.904;2024-03-22T07:05:21;5.67;;;3.20;;
8704;SDS011;4389;41.932;25.904;2024-03-22T07:07:48;2.73;;;2.40;;
8704;SDS011;4389;41.932;25.904;2024-03-22T07:10:15;6.77;;;2.90;;
8704;SDS011;4389;41.932;25.904;2024-03-22T07:12:42;2.87;;;2.20;;
8704;SDS011;4389;41.932;25.904;2024-03-22T07:15:10;3.63;;;2.57;;
8704;SDS011;4389;41.932;25.904;2024-03-22T07:17:37;3.23;;;2.83;;
8704;SDS011;4389;41.932;25.904;2024-03-22T07:20:03;5.03;;;2.40;;
8704;SDS011;4389;41.932;25.904;2024-03-22T07:22:31;8.30;;;3.60;;
8704;SDS011;4389;41.932;25.904;2024-03-22T07:25:00;5.40;;;3.40;;
8704;SDS011;4389;41.932;25.904;2024-03-22T07:27:27;4.10;;;2.63;;
8704;SDS011;4389;41.932;25.904;2024-03-22T07:29:54;3.60;;;2.60;;
8704;SDS011;4389;41.932;25.904;2024-03-22T07:32:22;2.53;;;2.17;;
8704;SDS011;4389;41.932;25.904;2024-03-22T07:34:48;2.80;;;2.50;;
8704;SDS011;4389;41.932;25.904;2024-03-22T07:37:15;2.60;;;2.40;;
8704;SDS011;4389;41.932;25.904;2024-03-22T07:39:41;5.20;;;2.50;;
8704;SDS011;4389;41.932;25.904;2024-03-22T07:42:08;3.70;;;2.20;;
8704;SDS011;4389;41.932;25.904;2024-03-22T07:44:33;5.07;;;2.00;;
8704;SDS011;4389;41.932;25.904;2024-03-22T07:47:00;2.83;;;2.10;;
8704;SDS011;4389;41.932;25.904;2024-03-22T07:49:27;2.33;;;2.10;;
8704;SDS011;4389;41.932;25.904;2024-03-22T07:51:54;2.10;;;1.90;;
8704;SDS011;4389;41.932;25.904;2024-03-22T07:54:20;6.97;;;1.90;;
8704;SDS011;4389;41.932;25.904;2024-03-22T07:56:47;3.43;;;1.87;;
8704;SDS011;4389;41.932;25.904;2024-03-22T07:59:13;7.23;;;2.00;;
8704;SDS011;4389;41.932;25.904;2024-03-22T08:01:40;2.43;;;1.90;;
8704;SDS011;4389;41.932;25.904;2024-03-22T08:04:05;8.33;;;1.90;;
8704;SDS011;4389;41.932;25.904;2024-03-22T08:06:34;2.00;;;1.70;;
8704;SDS011;4389;41.932;25.904;2024-03-22T08:09:00;1.77;;;1.67;;
8704;SDS011;4389;41.932;25.904;2024-03-22T08:11:28;9.63;;;2.77;;
8704;SDS011;4389;41.932;25.904;2024-03-22T08:13:53;2.70;;;1.87;;
8704;SDS011;4389;41.932;25.904;2024-03-22T08:16:27;5.00;;;2.00;;
8704;SDS011;4389;41.932;25.904;2024-03-22T08:18:52;1.80;;;1.70;;
8704;SDS011;4389;41.932;25.904;2024-03-22T08:21:19;2.40;;;2.20;;
8704;SDS011;4389;41.932;25.904;2024-03-22T08:23:46;3.53;;;2.07;;
8704;SDS011;4389;41.932;25.904;2024-03-22T08:26:13;2.77;;;1.80;;
8704;SDS011;4389;41.932;25.904;2024-03-22T08:28:39;2.30;;;1.90;;
8704;SDS011;4389;41.932;25.904;2024-03-22T08:31:06;1.80;;;1.70;;
8704;SDS011;4389;41.932;25.904;2024-03-22T08:33:31;7.17;;;2.10;;
8704;SDS011;4389;41.932;25.904;2024-03-22T08:35:58;1.63;;;1.53;;
8704;SDS011;4389;41.932;25.904;2024-03-22T08:38:24;2.00;;;1.40;;
8704;SDS011;4389;41.932;25.904;2024-03-22T08:40:53;4.47;;;1.90;;
8704;SDS011;4389;41.932;25.904;2024-03-22T08:43:19;2.17;;;1.63;;
8704;SDS011;4389;41.932;25.904;2024-03-22T08:45:48;9.13;;;2.00;;
8704;SDS011;4389;41.932;25.904;2024-03-22T08:48:13;2.40;;;1.87;;
8704;SDS011;4389;41.932;25.904;2024-03-22T08:50:41;1.67;;;1.53;;
8704;SDS011;4389;41.932;25.904;2024-03-22T08:53:07;1.60;;;1.50;;
8704;SDS011;4389;41.932;25.904;2024-03-22T08:55:34;2.83;;;1.93;;
8704;SDS011;4389;41.932;25.904;2024-03-22T08:58:01;2.83;;;2.23;;
8704;SDS011;4389;41.932;25.904;2024-03-22T09:00:29;2.00;;;1.80;;
8704;SDS011;4389;41.932;25.904;2024-03-22T09:02:54;2.40;;;2.00;;
8704;SDS011;4389;41.932;25.904;2024-03-22T09:05:21;2.00;;;1.67;;
8704;SDS011;4389;41.932;25.904;2024-03-22T09:07:47;5.57;;;1.87;;
8704;SDS011;4389;41.932;25.904;2024-03-22T09:10:15;2.20;;;2.00;;
8704;SDS011;4389;41.932;25.904;2024-03-22T09:12:41;3.43;;;1.77;;
8704;SDS011;4389;41.932;25.904;2024-03-22T09:15:09;46.87;;;3.07;;
8704;SDS011;4389;41.932;25.904;2024-03-22T09:17:35;3.73;;;1.77;;
8704;SDS011;4389;41.932;25.904;2024-03-22T09:20:02;4.23;;;1.90;;
8704;SDS011;4389;41.932;25.904;2024-03-22T09:22:29;4.37;;;2.10;;
8704;SDS011;4389;41.932;25.904;2024-03-22T09:24:57;3.87;;;2.50;;
8704;SDS011;4389;41.932;25.904;2024-03-22T09:27:23;19.07;;;3.50;;
8704;SDS011;4389;41.932;25.904;2024-03-22T09:29:50;3.63;;;1.53;;
8704;SDS011;4389;41.932;25.904;2024-03-22T09:32:17;1.70;;;1.60;;
8704;SDS011;4389;41.932;25.904;2024-03-22T09:34:44;2.83;;;1.63;;
8704;SDS011;4389;41.932;25.904;2024-03-22T09:37:10;1.73;;;1.57;;
8704;SDS011;4389;41.932;25.904;2024-03-22T09:39:37;4.60;;;2.40;;
8704;SDS011;4389;41.932;25.904;2024-03-22T09:42:04;2.17;;;1.50;;
8704;SDS011;4389;41.932;25.904;2024-03-22T09:44:32;2.13;;;1.60;;
8704;SDS011;4389;41.932;25.904;2024-03-22T09:46:58;7.17;;;1.90;;
8704;SDS011;4389;41.932;25.904;2024-03-22T09:49:27;2.00;;;1.80;;
8704;SDS011;4389;41.932;25.904;2024-03-22T09:51:53;2.20;;;1.57;;
8704;SDS011;4389;41.932;25.904;2024-03-22T09:54:22;3.10;;;1.63;;
8704;SDS011;4389;41.932;25.904;2024-03-22T09:56:50;3.03;;;2.07;;
8704;SDS011;4389;41.932;25.904;2024-03-22T09:59:17;7.73;;;1.90;;
8704;SDS011;4389;41.932;25.904;2024-03-22T10:01:43;4.20;;;1.80;;
8704;SDS011;4389;41.932;25.904;2024-03-22T10:04:11;2.97;;;2.30;;
8704;SDS011;4389;41.932;25.904;2024-03-22T10:06:38;1.97;;;1.70;;
8704;SDS011;4389;41.932;25.904;2024-03-22T10:09:04;9.47;;;1.90;;
8704;SDS011;4389;41.932;25.904;2024-03-22T10:11:31;3.37;;;1.67;;
8704;SDS011;4389;41.932;25.904;2024-03-22T10:13:59;1.63;;;1.40;;
8704;SDS011;4389;41.932;25.904;2024-03-22T10:16:25;1.40;;;1.30;;
8704;SDS011;4389;41.932;25.904;2024-03-22T10:18:52;3.90;;;1.70;;
8704;SDS011;4389;41.932;25.904;2024-03-22T10:21:18;3.53;;;2.17;;
8704;SDS011;4389;41.932;25.904;2024-03-22T10:23:47;2.90;;;1.87;;
8704;SDS011;4389;41.932;25.904;2024-03-22T10:26:15;1.87;;;1.67;;
8704;SDS011;4389;41.932;25.904;2024-03-22T10:28:46;1.87;;;1.50;;
8704;SDS011;4389;41.932;25.904;2024-03-22T10:31:12;3.00;;;2.03;;
8704;SDS011;4389;41.932;25.904;2024-03-22T10:33:40;1.67;;;1.40;;
8704;SDS011;4389;41.932;25.904;2024-03-22T10:36:06;2.10;;;1.47;;
8704;SDS011;4389;41.932;25.904;2024-03-22T10:38:34;3.53;;;1.60;;
8704;SDS011;4389;41.932;25.904;2024-03-22T10:41:04;2.20;;;1.60;;
8704;SDS011;4389;41.932;25.904;2024-03-22T10:43:31;2.37;;;1.70;;
8704;SDS011;4389;41.932;25.904;2024-03-22T10:46:00;2.37;;;1.90;;
8704;SDS011;4389;41.932;25.904;2024-03-22T10:48:29;4.23;;;2.00;;
8704;SDS011;4389;41.932;25.904;2024-03-22T10:50:58;1.60;;;1.40;;
8704;SDS011;4389;41.932;25.904;2024-03-22T10:53:25;3.40;;;1.60;;
8704;SDS011;4389;41.932;25.904;2024-03-22T10:55:52;1.63;;;1.50;;
8704;SDS011;4389;41.932;25.904;2024-03-22T10:58:26;3.17;;;1.40;;
8704;SDS011;4389;41.932;25.904;2024-03-22T11:00:52;2.13;;;1.47;;
8704;SDS011;4389;41.932;25.904;2024-03-22T11:03:20;4.63;;;1.70;;
8704;SDS011;4389;41.932;25.904;2024-03-22T11:05:46;1.63;;;1.27;;
8704;SDS011;4389;41.932;25.904;2024-03-22T11:08:13;2.17;;;1.97;;
8704;SDS011;4389;41.932;25.904;2024-03-22T11:10:49;2.13;;;1.40;;
8704;SDS011;4389;41.932;25.904;2024-03-22T11:13:16;4.63;;;2.07;;
8704;SDS011;4389;41.932;25.904;2024-03-22T11:15:44;1.57;;;1.30;;
8704;SDS011;4389;41.932;25.904;2024-03-22T11:18:14;4.40;;;1.40;;
8704;SDS011;4389;41.932;25.904;2024-03-22T11:20:40;2.10;;;1.20;;
8704;SDS011;4389;41.932;25.904;2024-03-22T11:23:08;2.20;;;1.20;;
8704;SDS011;4389;41.932;25.904;2024-03-22T11:25:34;1.83;;;1.27;;
8704;SDS011;4389;41.932;25.904;2024-03-22T11:28:01;4.67;;;1.70;;
8704;SDS011;4389;41.932;25.904;2024-03-22T11:30:27;2.50;;;1.93;;
8704;SDS011;4389;41.932;25.904;2024-03-22T11:32:56;6.33;;;1.60;;
8704;SDS011;4389;41.932;25.904;2024-03-22T11:35:22;2.73;;;1.63;;
8704;SDS011;4389;41.932;25.904;2024-03-22T11:37:49;1.37;;;1.27;;
8704;SDS011;4389;41.932;25.904;2024-03-22T11:40:16;5.73;;;2.13;;
8704;SDS011;4389;41.932;25.904;2024-03-22T11:42:44;4.40;;;1.60;;
8704;SDS011;4389;41.932;25.904;2024-03-22T11:45:12;3.07;;;1.87;;
8704;SDS011;4389;41.932;25.904;2024-03-22T11:47:41;5.33;;;1.40;;
8704;SDS011;4389;41.932;25.904;2024-03-22T11:50:09;6.13;;;1.97;;
8704;SDS011;4389;41.932;25.904;2024-03-22T11:52:40;7.77;;;3.60;;
8704;SDS011;4389;41.932;25.904;2024-03-22T11:55:06;2.63;;;1.50;;
8704;SDS011;4389;41.932;25.904;2024-03-22T11:57:33;3.57;;;1.53;;
8704;SDS011;4389;41.932;25.904;2024-03-22T11:59:59;3.57;;;1.33;;
8704;SDS011;4389;41.932;25.904;2024-03-22T12:02:28;3.00;;;1.33;;
8704;SDS011;4389;41.932;25.904;2024-03-22T12:04:54;21.53;;;2.97;;
8704;SDS011;4389;41.932;25.904;2024-03-22T12:07:23;4.83;;;1.20;;
8704;SDS011;4389;41.932;25.904;2024-03-22T12:09:49;2.17;;;1.30;;
8704;SDS011;4389;41.932;25.904;2024-03-22T12:12:17;2.60;;;1.30;;
8704;SDS011;4389;41.932;25.904;2024-03-22T12:14:46;17.63;;;2.10;;
8704;SDS011;4389;41.932;25.904;2024-03-22T12:17:14;3.07;;;1.20;;
8704;SDS011;4389;41.932;25.904;2024-03-22T12:19:39;6.83;;;5.30;;
8704;SDS011;4389;41.932;25.904;2024-03-22T12:22:06;2.60;;;1.67;;
8704;SDS011;4389;41.932;25.904;2024-03-22T12:24:33;4.13;;;2.20;;
8704;SDS011;4389;41.932;25.904;2024-03-22T12:27:00;18.43;;;2.20;;
8704;SDS011;4389;41.932;25.904;2024-03-22T12:29:26;14.57;;;2.77;;
8704;SDS011;4389;41.932;25.904;2024-03-22T12:31:53;5.50;;;2.00;;
8704;SDS011;4389;41.932;25.904;2024-03-22T12:34:20;1.40;;;1.23;;
8704;SDS011;4389;41.932;25.904;2024-03-22T12:36:47;1.53;;;1.20;;
8704;SDS011;4389;41.932;25.904;2024-03-22T12:39:13;2.50;;;1.70;;
8704;SDS011;4389;41.932;25.904;2024-03-22T12:41:41;3.73;;;1.43;;
8704;SDS011;4389;41.932;25.904;2024-03-22T12:44:07;2.60;;;2.07;;
8704;SDS011;4389;41.932;25.904;2024-03-22T12:46:33;12.83;;;2.60;;
8704;SDS011;4389;41.932;25.904;2024-03-22T12:48:59;1.50;;;1.27;;
8704;SDS011;4389;41.932;25.904;2024-03-22T12:51:26;93.93;;;7.40;;
8704;SDS011;4389;41.932;25.904;2024-03-22T12:53:52;1.77;;;1.60;;
8704;SDS011;4389;41.932;25.904;2024-03-22T12:56:20;4.73;;;1.90;;
8704;SDS011;4389;41.932;25.904;2024-03-22T12:58:48;2.50;;;1.80;;
8704;SDS011;4389;41.932;25.904;2024-03-22T13:01:15;3.20;;;1.30;;
8704;SDS011;4389;41.932;25.904;2024-03-22T13:03:40;2.87;;;1.67;;
8704;SDS011;4389;41.932;25.904;2024-03-22T13:06:07;1.20;;;1.10;;
8704;SDS011;4389;41.932;25.904;2024-03-22T13:08:37;7.19;;;1.20;;
8704;SDS011;4389;41.932;25.904;2024-03-22T13:11:04;7.17;;;1.57;;
8704;SDS011;4389;41.932;25.904;2024-03-22T13:13:33;4.33;;;1.03;;
8704;SDS011;4389;41.932;25.904;2024-03-22T13:16:02;2.00;;;1.20;;
8704;SDS011;4389;41.932;25.904;2024-03-22T13:18:28;22.33;;;2.50;;
8704;SDS011;4389;41.932;25.904;2024-03-22T13:20:55;1.50;;;1.20;;
8704;SDS011;4389;41.932;25.904;2024-03-22T13:23:21;2.77;;;1.50;;
8704;SDS011;4389;41.932;25.904;2024-03-22T13:25:48;1.43;;;1.20;;
8704;SDS011;4389;41.932;25.904;2024-03-22T13:28:14;1.63;;;1.00;;
8704;SDS011;4389;41.932;25.904;2024-03-22T13:30:45;2.07;;;1.40;;
8704;SDS011;4389;41.932;25.904;2024-03-22T13:33:12;4.20;;;1.20;;
8704;SDS011;4389;41.932;25.904;2024-03-22T13:35:39;1.63;;;1.30;;
8704;SDS011;4389;41.932;25.904;2024-03-22T13:38:06;13.77;;;2.50;;
8704;SDS011;4389;41.932;25.904;2024-03-22T13:40:38;2.90;;;1.10;;
8704;SDS011;4389;41.932;25.904;2024-03-22T13:43:05;1.77;;;1.30;;
8704;SDS011;4389;41.932;25.904;2024-03-22T13:45:32;5.67;;;1.50;;
8704;SDS011;4389;41.932;25.904;2024-03-22T13:47:58;9.17;;;1.83;;
8704;SDS011;4389;41.932;25.904;2024-03-22T13:50:26;3.63;;;2.00;;
8704;SDS011;4389;41.932;25.904;2024-03-22T13:52:52;4.13;;;1.40;;
8704;SDS011;4389;41.932;25.904;2024-03-22T13:55:19;9.63;;;2.17;;
8704;SDS011;4389;41.932;25.904;2024-03-22T13:57:45;4.30;;;1.30;;
8704;SDS011;4389;41.932;25.904;2024-03-22T14:00:12;3.10;;;1.50;;
8704;SDS011;4389;41.932;25.904;2024-03-22T14:02:39;4.83;;;1.53;;
8704;SDS011;4389;41.932;25.904;2024-03-22T14:05:06;1.40;;;1.27;;
8704;SDS011;4389;41.932;25.904;2024-03-22T14:07:35;1.50;;;1.30;;
8704;SDS011;4389;41.932;25.904;2024-03-22T14:10:05;4.87;;;2.30;;
8704;SDS011;4389;41.932;25.904;2024-03-22T14:12:34;2.77;;;1.67;;
8704;SDS011;4389;41.932;25.904;2024-03-22T14:15:00;2.37;;;1.87;;
8704;SDS011;4389;41.932;25.904;2024-03-22T14:17:26;5.60;;;1.87;;
8704;SDS011;4389;41.932;25.904;2024-03-22T14:19:53;1.97;;;1.77;;
8704;SDS011;4389;41.932;25.904;2024-03-22T14:22:20;5.90;;;1.80;;
8704;SDS011;4389;41.932;25.904;2024-03-22T14:24:48;1.27;;;1.10;;
8704;SDS011;4389;41.932;25.904;2024-03-22T14:27:14;1.90;;;1.30;;
8704;SDS011;4389;41.932;25.904;2024-03-22T14:29:40;2.07;;;1.80;;
8704;SDS011;4389;41.932;25.904;2024-03-22T14:32:06;2.20;;;1.30;;
8704;SDS011;4389;41.932;25.904;2024-03-22T14:34:33;5.33;;;1.60;;
8704;SDS011;4389;41.932;25.904;2024-03-22T14:36:59;3.90;;;1.43;;
8704;SDS011;4389;41.932;25.904;2024-03-22T14:39:26;4.57;;;1.70;;
8704;SDS011;4389;41.932;25.904;2024-03-22T14:41:53;3.20;;;1.80;;
8704;SDS011;4389;41.932;25.904;2024-03-22T14:44:20;1.97;;;1.40;;
8704;SDS011;4389;41.932;25.904;2024-03-22T14:46:46;10.07;;;1.90;;
8704;SDS011;4389;41.932;25.904;2024-03-22T14:49:12;1.60;;;1.40;;
8704;SDS011;4389;41.932;25.904;2024-03-22T14:51:38;1.60;;;1.27;;
8704;SDS011;4389;41.932;25.904;2024-03-22T14:54:05;2.37;;;1.53;;
8704;SDS011;4389;41.932;25.904;2024-03-22T14:56:31;3.70;;;1.27;;